Tonyrefail, United Kingdom
Current Conditions -  °F | °C
As of 12:50 PM on Tuesday 21 Oct 2014 (Local Time) from EGDX Reporting Station
Rain Showers Rain Showers  
Wind Chill: 13°   Ceiling: Unl
Heat Index: 13°   Visibility: 6mi
Dew Point:   Wind: 28mph
Humidity: 58%   Direction: 290°WNW
Pressure: 29.85"   Gusts: 40mph
Location:  51.58°N, 3.43°W
Report Text: EGDX 211150Z 29024G35KT 9999 VCSH SCT031 13/05 Q1011 BLU
Loading
Personal Weather Stations






























Interactive Weather Map
Tropical Storm Tracking
New forecast layout! Learn more

10-Day Weather Forecast

Advertisements
Track Severe Weather on mobile